UNTT/TOF METAR and TAF weather

Enter ICAO airport designator
Station Type Date Time Source
UNTT METAR 2019/02/16 07:00 UTC NOAA

UNTT 160700Z 22011G16MPS 9999 DRSN SCT028 M04/M09 Q1014 R21/490140 NOSIG RMK QFE745


Station Type Date Time Source
UNTT Decoded METAR 2019/02/16 07:00 UTC NOAA

Station name not available
Feb 16, 2019 - 02:00 AM EST / 2019.02.16 0700 UTC
Wind: from the SW (220 degrees) at 25 MPH (21 KT) gusting to 36 MPH (31 KT):0
Visibility: greater than 7 mile(s):0
Sky conditions: partly cloudy
Weather: low drifting snow
Temperature: 24 F (-4 C)
Windchill: 8 F (-13 C):1
Dew Point: 15 F (-9 C)
Relative Humidity: 68%
Pressure (altimeter): 29.94 in. Hg (1014 hPa)
ob: UNTT 160700Z 22011G16MPS 9999 DRSN SCT028 M04/M09 Q1014 R21/490140 NOSIG RMK QFE745
cycle: 7

Station Type Date Time Source
UNTT TAF UTC NOAA

Error!


Example: see airport list